sensor_id;sensor_type;location;lat;lon;timestamp;temperature;humidity
48994;DHT22;34804;49.214;12.276;2023-10-13T00:00:48;14.40;95.60
48994;DHT22;34804;49.214;12.276;2023-10-13T00:03:15;14.40;95.60
48994;DHT22;34804;49.214;12.276;2023-10-13T00:05:43;14.30;95.40
48994;DHT22;34804;49.214;12.276;2023-10-13T00:08:11;14.30;95.40
48994;DHT22;34804;49.214;12.276;2023-10-13T00:10:38;14.20;95.20
48994;DHT22;34804;49.214;12.276;2023-10-13T00:13:05;14.20;95.40
48994;DHT22;34804;49.214;12.276;2023-10-13T00:15:39;14.20;95.20
48994;DHT22;34804;49.214;12.276;2023-10-13T00:18:11;14.10;95.20
48994;DHT22;34804;49.214;12.276;2023-10-13T00:20:42;14.10;95.30
48994;DHT22;34804;49.214;12.276;2023-10-13T00:23:16;14.10;95.50
48994;DHT22;34804;49.214;12.276;2023-10-13T00:25:49;14.10;95.20
48994;DHT22;34804;49.214;12.276;2023-10-13T00:28:36;14.10;95.30
48994;DHT22;34804;49.214;12.276;2023-10-13T00:31:10;14.00;95.20
48994;DHT22;34804;49.214;12.276;2023-10-13T00:33:41;14.10;95.30
48994;DHT22;34804;49.214;12.276;2023-10-13T00:36:11;14.00;95.20
48994;DHT22;34804;49.214;12.276;2023-10-13T00:38:46;14.10;95.30
48994;DHT22;34804;49.214;12.276;2023-10-13T00:41:19;14.10;95.30
48994;DHT22;34804;49.214;12.276;2023-10-13T00:44:00;14.10;95.40
48994;DHT22;34804;49.214;12.276;2023-10-13T00:46:32;14.10;95.30
48994;DHT22;34804;49.214;12.276;2023-10-13T00:49:03;14.10;95.20
48994;DHT22;34804;49.214;12.276;2023-10-13T00:51:36;14.00;95.10
48994;DHT22;34804;49.214;12.276;2023-10-13T00:54:08;14.00;95.30
48994;DHT22;34804;49.214;12.276;2023-10-13T00:56:42;14.00;95.30
48994;DHT22;34804;49.214;12.276;2023-10-13T00:59:19;14.00;95.40
48994;DHT22;34804;49.214;12.276;2023-10-13T01:01:52;14.00;95.40
48994;DHT22;34804;49.214;12.276;2023-10-13T01:04:23;14.00;95.30
48994;DHT22;34804;49.214;12.276;2023-10-13T01:06:54;14.00;95.40
48994;DHT22;34804;49.214;12.276;2023-10-13T01:09:21;13.90;95.30
48994;DHT22;34804;49.214;12.276;2023-10-13T01:11:51;13.90;95.50
48994;DHT22;34804;49.214;12.276;2023-10-13T01:14:22;13.90;95.50
48994;DHT22;34804;49.214;12.276;2023-10-13T01:16:50;13.90;95.40
48994;DHT22;34804;49.214;12.276;2023-10-13T01:19:22;13.90;95.40
48994;DHT22;34804;49.214;12.276;2023-10-13T01:21:52;13.90;95.40
48994;DHT22;34804;49.214;12.276;2023-10-13T01:24:24;13.90;95.50
48994;DHT22;34804;49.214;12.276;2023-10-13T01:26:52;13.90;95.60
48994;DHT22;34804;49.214;12.276;2023-10-13T01:29:19;13.90;95.60
48994;DHT22;34804;49.214;12.276;2023-10-13T01:31:52;13.90;95.50
48994;DHT22;34804;49.214;12.276;2023-10-13T01:34:19;13.90;95.50
48994;DHT22;34804;49.214;12.276;2023-10-13T01:36:53;13.90;95.50
48994;DHT22;34804;49.214;12.276;2023-10-13T01:39:21;13.80;95.50
48994;DHT22;34804;49.214;12.276;2023-10-13T01:41:53;13.80;95.40
48994;DHT22;34804;49.214;12.276;2023-10-13T01:44:24;13.70;95.40
48994;DHT22;34804;49.214;12.276;2023-10-13T01:46:53;13.60;95.40
48994;DHT22;34804;49.214;12.276;2023-10-13T01:49:20;13.60;95.60
48994;DHT22;34804;49.214;12.276;2023-10-13T01:51:49;13.70;95.70
48994;DHT22;34804;49.214;12.276;2023-10-13T01:54:16;13.60;95.30
48994;DHT22;34804;49.214;12.276;2023-10-13T01:56:43;13.60;95.40
48994;DHT22;34804;49.214;12.276;2023-10-13T01:59:13;13.60;95.20
48994;DHT22;34804;49.214;12.276;2023-10-13T02:01:40;13.60;95.40
48994;DHT22;34804;49.214;12.276;2023-10-13T02:04:08;13.60;95.20
48994;DHT22;34804;49.214;12.276;2023-10-13T02:06:37;13.50;95.30
48994;DHT22;34804;49.214;12.276;2023-10-13T02:09:08;13.50;95.40
48994;DHT22;34804;49.214;12.276;2023-10-13T02:11:52;13.50;95.50
48994;DHT22;34804;49.214;12.276;2023-10-13T02:14:21;13.50;95.30
48994;DHT22;34804;49.214;12.276;2023-10-13T02:16:52;13.50;95.60
48994;DHT22;34804;49.214;12.276;2023-10-13T02:19:42;13.50;95.90
48994;DHT22;34804;49.214;12.276;2023-10-13T02:22:13;13.60;96.10
48994;DHT22;34804;49.214;12.276;2023-10-13T02:24:52;13.60;96.10
48994;DHT22;34804;49.214;12.276;2023-10-13T02:27:19;13.60;96.10
48994;DHT22;34804;49.214;12.276;2023-10-13T02:29:50;13.60;95.90
48994;DHT22;34804;49.214;12.276;2023-10-13T02:32:17;13.60;95.90
48994;DHT22;34804;49.214;12.276;2023-10-13T02:34:47;13.60;95.70
48994;DHT22;34804;49.214;12.276;2023-10-13T02:37:14;13.50;95.80
48994;DHT22;34804;49.214;12.276;2023-10-13T02:39:41;13.60;95.90
48994;DHT22;34804;49.214;12.276;2023-10-13T02:42:08;13.60;96.00
48994;DHT22;34804;49.214;12.276;2023-10-13T02:44:50;13.70;96.10
48994;DHT22;34804;49.214;12.276;2023-10-13T02:47:17;13.70;96.10
48994;DHT22;34804;49.214;12.276;2023-10-13T02:49:46;13.80;96.00
48994;DHT22;34804;49.214;12.276;2023-10-13T02:52:14;13.70;96.00
48994;DHT22;34804;49.214;12.276;2023-10-13T02:54:42;13.70;95.80
48994;DHT22;34804;49.214;12.276;2023-10-13T02:57:14;13.60;95.70
48994;DHT22;34804;49.214;12.276;2023-10-13T02:59:45;13.50;95.60
48994;DHT22;34804;49.214;12.276;2023-10-13T03:02:15;13.50;95.70
48994;DHT22;34804;49.214;12.276;2023-10-13T03:04:57;13.40;95.60
48994;DHT22;34804;49.214;12.276;2023-10-13T03:07:31;13.40;95.70
48994;DHT22;34804;49.214;12.276;2023-10-13T03:09:59;13.40;95.80
48994;DHT22;34804;49.214;12.276;2023-10-13T03:12:37;13.50;95.80
48994;DHT22;34804;49.214;12.276;2023-10-13T03:15:05;13.50;95.90
48994;DHT22;34804;49.214;12.276;2023-10-13T03:17:45;13.50;95.90
48994;DHT22;34804;49.214;12.276;2023-10-13T03:20:14;13.50;95.90
48994;DHT22;34804;49.214;12.276;2023-10-13T03:22:43;13.50;96.00
48994;DHT22;34804;49.214;12.276;2023-10-13T03:25:13;13.60;96.00
48994;DHT22;34804;49.214;12.276;2023-10-13T03:27:56;13.50;95.90
48994;DHT22;34804;49.214;12.276;2023-10-13T03:30:28;13.50;95.90
48994;DHT22;34804;49.214;12.276;2023-10-13T03:33:09;13.50;96.00
48994;DHT22;34804;49.214;12.276;2023-10-13T03:35:41;13.50;95.80
48994;DHT22;34804;49.214;12.276;2023-10-13T03:38:19;13.40;95.80
48994;DHT22;34804;49.214;12.276;2023-10-13T03:40:49;13.40;95.50
48994;DHT22;34804;49.214;12.276;2023-10-13T03:43:16;13.30;95.50
48994;DHT22;34804;49.214;12.276;2023-10-13T03:45:50;13.20;95.40
48994;DHT22;34804;49.214;12.276;2023-10-13T03:48:35;13.20;95.50
48994;DHT22;34804;49.214;12.276;2023-10-13T03:51:18;13.20;95.60
48994;DHT22;34804;49.214;12.276;2023-10-13T03:53:46;13.20;95.70
48994;DHT22;34804;49.214;12.276;2023-10-13T03:56:21;13.20;95.70
48994;DHT22;34804;49.214;12.276;2023-10-13T03:58:59;13.20;95.70
48994;DHT22;34804;49.214;12.276;2023-10-13T04:01:34;13.20;95.70
48994;DHT22;34804;49.214;12.276;2023-10-13T04:04:24;13.20;95.70
48994;DHT22;34804;49.214;12.276;2023-10-13T04:07:10;13.20;95.60
48994;DHT22;34804;49.214;12.276;2023-10-13T04:09:37;13.10;95.50
48994;DHT22;34804;49.214;12.276;2023-10-13T04:12:13;13.10;95.50
48994;DHT22;34804;49.214;12.276;2023-10-13T04:14:59;13.10;95.30
48994;DHT22;34804;49.214;12.276;2023-10-13T04:17:32;12.90;95.40
48994;DHT22;34804;49.214;12.276;2023-10-13T04:20:07;13.00;95.50
48994;DHT22;34804;49.214;12.276;2023-10-13T04:22:39;12.90;95.60
48994;DHT22;34804;49.214;12.276;2023-10-13T04:25:25;13.00;95.50
48994;DHT22;34804;49.214;12.276;2023-10-13T04:28:15;13.00;95.50
48994;DHT22;34804;49.214;12.276;2023-10-13T04:31:00;13.00;95.60
48994;DHT22;34804;49.214;12.276;2023-10-13T04:33:38;13.00;95.60
48994;DHT22;34804;49.214;12.276;2023-10-13T04:36:18;12.90;95.60
48994;DHT22;34804;49.214;12.276;2023-10-13T04:38:59;12.90;95.60
48994;DHT22;34804;49.214;12.276;2023-10-13T04:41:28;12.80;95.60
48994;DHT22;34804;49.214;12.276;2023-10-13T04:43:59;12.90;95.80
48994;DHT22;34804;49.214;12.276;2023-10-13T04:46:32;13.00;95.90
48994;DHT22;34804;49.214;12.276;2023-10-13T04:49:22;13.10;95.90
48994;DHT22;34804;49.214;12.276;2023-10-13T04:52:02;13.10;95.80
48994;DHT22;34804;49.214;12.276;2023-10-13T04:54:37;13.10;95.70
48994;DHT22;34804;49.214;12.276;2023-10-13T04:57:23;13.00;95.60
48994;DHT22;34804;49.214;12.276;2023-10-13T05:00:06;13.00;95.70
48994;DHT22;34804;49.214;12.276;2023-10-13T05:02:41;12.90;95.60
48994;DHT22;34804;49.214;12.276;2023-10-13T05:05:13;12.90;95.50
48994;DHT22;34804;49.214;12.276;2023-10-13T05:07:41;12.90;95.40
48994;DHT22;34804;49.214;12.276;2023-10-13T05:10:28;12.80;95.40
48994;DHT22;34804;49.214;12.276;2023-10-13T05:13:13;12.80;95.40
48994;DHT22;34804;49.214;12.276;2023-10-13T05:15:59;12.80;95.20
48994;DHT22;34804;49.214;12.276;2023-10-13T05:18:44;12.70;95.10
48994;DHT22;34804;49.214;12.276;2023-10-13T05:21:30;12.60;95.00
48994;DHT22;34804;49.214;12.276;2023-10-13T05:24:16;12.80;95.70
48994;DHT22;34804;49.214;12.276;2023-10-13T05:27:01;12.80;95.70
48994;DHT22;34804;49.214;12.276;2023-10-13T05:29:48;13.00;95.70
48994;DHT22;34804;49.214;12.276;2023-10-13T05:32:33;13.10;95.40
48994;DHT22;34804;49.214;12.276;2023-10-13T05:35:23;13.20;95.00
48994;DHT22;34804;49.214;12.276;2023-10-13T05:38:09;13.30;94.50
48994;DHT22;34804;49.214;12.276;2023-10-13T05:41:00;13.40;94.10
48994;DHT22;34804;49.214;12.276;2023-10-13T05:43:50;13.50;93.90
48994;DHT22;34804;49.214;12.276;2023-10-13T05:46:36;13.50;93.90
48994;DHT22;34804;49.214;12.276;2023-10-13T05:49:08;13.50;93.80
48994;DHT22;34804;49.214;12.276;2023-10-13T05:51:38;13.50;93.80
48994;DHT22;34804;49.214;12.276;2023-10-13T05:54:08;13.50;93.80
48994;DHT22;34804;49.214;12.276;2023-10-13T05:56:46;13.50;93.60
48994;DHT22;34804;49.214;12.276;2023-10-13T05:59:34;13.50;93.50
48994;DHT22;34804;49.214;12.276;2023-10-13T06:02:20;13.40;93.10
48994;DHT22;34804;49.214;12.276;2023-10-13T06:05:08;13.40;93.80
48994;DHT22;34804;49.214;12.276;2023-10-13T06:07:55;13.50;93.80
48994;DHT22;34804;49.214;12.276;2023-10-13T06:10:41;13.60;93.50
48994;DHT22;34804;49.214;12.276;2023-10-13T06:13:27;13.50;93.30
48994;DHT22;34804;49.214;12.276;2023-10-13T06:16:14;13.50;93.60
48994;DHT22;34804;49.214;12.276;2023-10-13T06:19:01;13.60;93.70
48994;DHT22;34804;49.214;12.276;2023-10-13T06:21:47;13.70;93.80
48994;DHT22;34804;49.214;12.276;2023-10-13T06:24:32;13.80;94.00
48994;DHT22;34804;49.214;12.276;2023-10-13T06:27:18;13.90;93.90
48994;DHT22;34804;49.214;12.276;2023-10-13T06:30:04;14.10;93.80
48994;DHT22;34804;49.214;12.276;2023-10-13T06:32:33;14.20;92.40
48994;DHT22;34804;49.214;12.276;2023-10-13T06:35:00;14.30;92.10
48994;DHT22;34804;49.214;12.276;2023-10-13T06:37:53;14.40;91.60
48994;DHT22;34804;49.214;12.276;2023-10-13T06:40:20;14.50;91.80
48994;DHT22;34804;49.214;12.276;2023-10-13T06:43:00;14.60;91.60
48994;DHT22;34804;49.214;12.276;2023-10-13T06:45:43;14.70;91.70
48994;DHT22;34804;49.214;12.276;2023-10-13T06:48:30;14.80;90.50
48994;DHT22;34804;49.214;12.276;2023-10-13T06:51:02;14.80;90.40
48994;DHT22;34804;49.214;12.276;2023-10-13T06:53:45;14.90;90.10
48994;DHT22;34804;49.214;12.276;2023-10-13T06:56:15;15.00;90.30
48994;DHT22;34804;49.214;12.276;2023-10-13T06:58:49;15.00;90.00
48994;DHT22;34804;49.214;12.276;2023-10-13T07:01:16;15.00;89.00
48994;DHT22;34804;49.214;12.276;2023-10-13T07:03:43;15.10;89.20
48994;DHT22;34804;49.214;12.276;2023-10-13T07:06:10;15.20;89.40
48994;DHT22;34804;49.214;12.276;2023-10-13T07:08:44;15.40;88.50
48994;DHT22;34804;49.214;12.276;2023-10-13T07:11:15;15.50;87.40
48994;DHT22;34804;49.214;12.276;2023-10-13T07:14:00;15.70;87.20
48994;DHT22;34804;49.214;12.276;2023-10-13T07:19:26;15.80;85.90
48994;DHT22;34804;49.214;12.276;2023-10-13T07:22:00;15.80;85.60
48994;DHT22;34804;49.214;12.276;2023-10-13T07:24:30;16.00;86.50
48994;DHT22;34804;49.214;12.276;2023-10-13T07:27:03;16.10;85.70
48994;DHT22;34804;49.214;12.276;2023-10-13T07:29:33;16.00;86.20
48994;DHT22;34804;49.214;12.276;2023-10-13T07:32:03;16.00;85.60
48994;DHT22;34804;49.214;12.276;2023-10-13T07:34:30;16.20;84.60
48994;DHT22;34804;49.214;12.276;2023-10-13T07:37:01;16.30;85.20
48994;DHT22;34804;49.214;12.276;2023-10-13T07:39:34;16.40;84.60
48994;DHT22;34804;49.214;12.276;2023-10-13T07:42:02;16.50;83.30
48994;DHT22;34804;49.214;12.276;2023-10-13T07:44:46;16.70;84.00
48994;DHT22;34804;49.214;12.276;2023-10-13T07:47:14;16.80;81.80
48994;DHT22;34804;49.214;12.276;2023-10-13T07:49:43;16.90;80.50
48994;DHT22;34804;49.214;12.276;2023-10-13T07:52:12;17.10;81.90
48994;DHT22;34804;49.214;12.276;2023-10-13T07:54:52;17.20;81.60
48994;DHT22;34804;49.214;12.276;2023-10-13T07:57:42;17.30;81.30
48994;DHT22;34804;49.214;12.276;2023-10-13T08:00:23;17.40;80.40
48994;DHT22;34804;49.214;12.276;2023-10-13T08:03:05;17.50;80.90
48994;DHT22;34804;49.214;12.276;2023-10-13T08:05:55;17.60;80.50
48994;DHT22;34804;49.214;12.276;2023-10-13T08:08:48;17.70;78.70
48994;DHT22;34804;49.214;12.276;2023-10-13T08:11:20;17.80;78.00
48994;DHT22;34804;49.214;12.276;2023-10-13T08:13:54;17.80;77.80
48994;DHT22;34804;49.214;12.276;2023-10-13T08:16:39;17.90;77.50
48994;DHT22;34804;49.214;12.276;2023-10-13T08:19:13;18.00;77.50
48994;DHT22;34804;49.214;12.276;2023-10-13T08:21:44;18.10;76.50
48994;DHT22;34804;49.214;12.276;2023-10-13T08:24:42;18.20;76.30
48994;DHT22;34804;49.214;12.276;2023-10-13T08:27:09;18.30;76.90
48994;DHT22;34804;49.214;12.276;2023-10-13T08:29:46;18.40;77.80
48994;DHT22;34804;49.214;12.276;2023-10-13T08:32:27;18.40;77.50
48994;DHT22;34804;49.214;12.276;2023-10-13T08:34:55;18.60;77.80
48994;DHT22;34804;49.214;12.276;2023-10-13T08:37:22;18.60;76.00
48994;DHT22;34804;49.214;12.276;2023-10-13T08:39:50;18.70;75.90
48994;DHT22;34804;49.214;12.276;2023-10-13T08:42:51;18.80;76.80
48994;DHT22;34804;49.214;12.276;2023-10-13T08:45:31;18.90;77.40
48994;DHT22;34804;49.214;12.276;2023-10-13T08:48:02;19.00;76.70
48994;DHT22;34804;49.214;12.276;2023-10-13T08:50:49;19.10;74.80
48994;DHT22;34804;49.214;12.276;2023-10-13T08:56:00;19.50;71.70
48994;DHT22;34804;49.214;12.276;2023-10-13T08:58:47;19.50;71.40
48994;DHT22;34804;49.214;12.276;2023-10-13T09:01:27;19.70;70.60
48994;DHT22;34804;49.214;12.276;2023-10-13T09:04:14;19.80;70.10
48994;DHT22;34804;49.214;12.276;2023-10-13T09:06:58;19.90;69.40
48994;DHT22;34804;49.214;12.276;2023-10-13T09:12:37;20.10;67.30
48994;DHT22;34804;49.214;12.276;2023-10-13T09:15:08;20.30;67.00
48994;DHT22;34804;49.214;12.276;2023-10-13T09:17:48;20.30;66.60
48994;DHT22;34804;49.214;12.276;2023-10-13T09:20:31;20.40;69.60
48994;DHT22;34804;49.214;12.276;2023-10-13T09:23:10;20.50;63.80
48994;DHT22;34804;49.214;12.276;2023-10-13T09:25:40;20.60;66.30
48994;DHT22;34804;49.214;12.276;2023-10-13T09:28:21;20.70;64.60
48994;DHT22;34804;49.214;12.276;2023-10-13T09:30:53;20.80;64.10
48994;DHT22;34804;49.214;12.276;2023-10-13T09:33:21;20.80;63.10
48994;DHT22;34804;49.214;12.276;2023-10-13T09:36:00;20.90;62.00
48994;DHT22;34804;49.214;12.276;2023-10-13T09:38:37;21.10;63.70
48994;DHT22;34804;49.214;12.276;2023-10-13T09:41:07;21.10;62.70
48994;DHT22;34804;49.214;12.276;2023-10-13T09:43:53;21.20;63.40
48994;DHT22;34804;49.214;12.276;2023-10-13T09:46:27;21.30;61.90
48994;DHT22;34804;49.214;12.276;2023-10-13T09:49:14;21.30;62.20
48994;DHT22;34804;49.214;12.276;2023-10-13T09:51:42;21.30;62.50
48994;DHT22;34804;49.214;12.276;2023-10-13T09:54:23;21.40;64.70
48994;DHT22;34804;49.214;12.276;2023-10-13T09:57:10;21.50;63.60
48994;DHT22;34804;49.214;12.276;2023-10-13T14:13:42;29.20;38.10
48994;DHT22;34804;49.214;12.276;2023-10-13T14:16:24;28.40;39.60
48994;DHT22;34804;49.214;12.276;2023-10-13T14:18:51;27.80;39.50
48994;DHT22;34804;49.214;12.276;2023-10-13T14:21:18;27.30;41.00
48994;DHT22;34804;49.214;12.276;2023-10-13T14:23:46;27.50;41.70
48994;DHT22;34804;49.214;12.276;2023-10-13T14:26:15;28.40;41.70
48994;DHT22;34804;49.214;12.276;2023-10-13T14:28:47;28.80;40.80
48994;DHT22;34804;49.214;12.276;2023-10-13T14:31:18;28.60;40.40
48994;DHT22;34804;49.214;12.276;2023-10-13T14:33:46;29.30;38.90
48994;DHT22;34804;49.214;12.276;2023-10-13T14:36:14;30.20;37.30
48994;DHT22;34804;49.214;12.276;2023-10-13T14:38:43;30.00;36.50
48994;DHT22;34804;49.214;12.276;2023-10-13T14:41:11;30.50;37.40
48994;DHT22;34804;49.214;12.276;2023-10-13T14:43:38;30.30;35.60
48994;DHT22;34804;49.214;12.276;2023-10-13T14:46:08;30.80;34.60
48994;DHT22;34804;49.214;12.276;2023-10-13T14:48:35;31.30;33.80
48994;DHT22;34804;49.214;12.276;2023-10-13T14:51:12;31.70;33.60
48994;DHT22;34804;49.214;12.276;2023-10-13T14:53:46;31.20;33.60
48994;DHT22;34804;49.214;12.276;2023-10-13T14:56:14;31.30;33.70
48994;DHT22;34804;49.214;12.276;2023-10-13T14:58:42;31.20;34.00
48994;DHT22;34804;49.214;12.276;2023-10-13T15:01:15;32.00;33.20
48994;DHT22;34804;49.214;12.276;2023-10-13T15:03:50;31.60;34.10
48994;DHT22;34804;49.214;12.276;2023-10-13T15:06:19;31.40;34.20
48994;DHT22;34804;49.214;12.276;2023-10-13T15:08:52;30.80;34.30
48994;DHT22;34804;49.214;12.276;2023-10-13T15:11:22;30.60;35.90
48994;DHT22;34804;49.214;12.276;2023-10-13T15:13:53;30.00;35.70
48994;DHT22;34804;49.214;12.276;2023-10-13T15:16:24;29.90;35.90
48994;DHT22;34804;49.214;12.276;2023-10-13T15:18:52;30.20;36.70
48994;DHT22;34804;49.214;12.276;2023-10-13T15:21:23;30.10;35.90
48994;DHT22;34804;49.214;12.276;2023-10-13T15:23:53;29.90;36.20
48994;DHT22;34804;49.214;12.276;2023-10-13T15:26:25;29.30;38.10
48994;DHT22;34804;49.214;12.276;2023-10-13T15:28:52;29.50;37.90
48994;DHT22;34804;49.214;12.276;2023-10-13T15:31:27;29.80;38.40
48994;DHT22;34804;49.214;12.276;2023-10-13T15:34:01;29.60;38.50
48994;DHT22;34804;49.214;12.276;2023-10-13T15:36:40;29.50;38.60
48994;DHT22;34804;49.214;12.276;2023-10-13T15:39:10;29.10;39.90
48994;DHT22;34804;49.214;12.276;2023-10-13T15:41:38;28.30;40.40
48994;DHT22;34804;49.214;12.276;2023-10-13T15:44:04;27.30;41.40
48994;DHT22;34804;49.214;12.276;2023-10-13T15:46:36;26.80;43.40
48994;DHT22;34804;49.214;12.276;2023-10-13T15:49:23;26.30;44.00
48994;DHT22;34804;49.214;12.276;2023-10-13T15:51:50;25.80;46.50
48994;DHT22;34804;49.214;12.276;2023-10-13T15:54:17;25.40;47.20
48994;DHT22;34804;49.214;12.276;2023-10-13T15:56:50;25.00;48.60
48994;DHT22;34804;49.214;12.276;2023-10-13T15:59:23;24.60;49.20
48994;DHT22;34804;49.214;12.276;2023-10-13T16:01:50;24.30;50.10
48994;DHT22;34804;49.214;12.276;2023-10-13T16:04:21;24.00;51.60
48994;DHT22;34804;49.214;12.276;2023-10-13T16:06:49;23.80;52.50
48994;DHT22;34804;49.214;12.276;2023-10-13T16:09:19;23.50;53.10
48994;DHT22;34804;49.214;12.276;2023-10-13T16:11:51;23.20;54.50
48994;DHT22;34804;49.214;12.276;2023-10-13T16:14:19;22.80;55.30
48994;DHT22;34804;49.214;12.276;2023-10-13T16:16:47;22.70;56.60
48994;DHT22;34804;49.214;12.276;2023-10-13T16:19:16;22.40;56.90
48994;DHT22;34804;49.214;12.276;2023-10-13T16:21:47;22.10;58.30
48994;DHT22;34804;49.214;12.276;2023-10-13T16:24:14;21.80;60.70
48994;DHT22;34804;49.214;12.276;2023-10-13T16:26:45;21.60;61.40
48994;DHT22;34804;49.214;12.276;2023-10-13T16:29:16;21.40;61.70
48994;DHT22;34804;49.214;12.276;2023-10-13T16:31:43;21.30;62.30
48994;DHT22;34804;49.214;12.276;2023-10-13T16:34:17;21.20;62.70
48994;DHT22;34804;49.214;12.276;2023-10-13T16:36:46;20.90;63.30
48994;DHT22;34804;49.214;12.276;2023-10-13T16:39:15;20.80;63.80
48994;DHT22;34804;49.214;12.276;2023-10-13T16:41:43;20.40;64.30
48994;DHT22;34804;49.214;12.276;2023-10-13T16:44:13;20.10;66.50
48994;DHT22;34804;49.214;12.276;2023-10-13T16:46:40;19.80;67.50
48994;DHT22;34804;49.214;12.276;2023-10-13T16:49:08;19.60;68.20
48994;DHT22;34804;49.214;12.276;2023-10-13T16:51:35;19.40;69.10
48994;DHT22;34804;49.214;12.276;2023-10-13T16:54:03;19.20;70.20
48994;DHT22;34804;49.214;12.276;2023-10-13T16:56:30;19.00;70.80
48994;DHT22;34804;49.214;12.276;2023-10-13T16:58:57;18.80;71.30
48994;DHT22;34804;49.214;12.276;2023-10-13T17:01:23;18.80;72.10
48994;DHT22;34804;49.214;12.276;2023-10-13T17:03:51;18.60;72.60
48994;DHT22;34804;49.214;12.276;2023-10-13T17:06:18;18.40;72.30
48994;DHT22;34804;49.214;12.276;2023-10-13T17:08:45;18.20;73.20
48994;DHT22;34804;49.214;12.276;2023-10-13T17:11:16;17.90;73.30
48994;DHT22;34804;49.214;12.276;2023-10-13T17:13:45;17.70;73.80
48994;DHT22;34804;49.214;12.276;2023-10-13T17:16:19;17.70;75.70
48994;DHT22;34804;49.214;12.276;2023-10-13T17:18:49;17.70;76.90
48994;DHT22;34804;49.214;12.276;2023-10-13T17:21:18;17.70;77.40
48994;DHT22;34804;49.214;12.276;2023-10-13T17:23:46;17.60;77.50
48994;DHT22;34804;49.214;12.276;2023-10-13T17:26:14;17.60;77.90
48994;DHT22;34804;49.214;12.276;2023-10-13T17:28:41;17.40;76.60
48994;DHT22;34804;49.214;12.276;2023-10-13T17:31:08;17.30;76.30
48994;DHT22;34804;49.214;12.276;2023-10-13T17:33:36;17.20;76.30
48994;DHT22;34804;49.214;12.276;2023-10-13T17:36:10;17.20;77.10
48994;DHT22;34804;49.214;12.276;2023-10-13T17:38:38;17.10;77.50
48994;DHT22;34804;49.214;12.276;2023-10-13T17:41:05;17.10;78.00
48994;DHT22;34804;49.214;12.276;2023-10-13T17:43:33;17.00;78.00
48994;DHT22;34804;49.214;12.276;2023-10-13T17:46:07;17.00;78.40
48994;DHT22;34804;49.214;12.276;2023-10-13T17:48:34;16.90;78.70
48994;DHT22;34804;49.214;12.276;2023-10-13T17:51:05;16.90;78.60
48994;DHT22;34804;49.214;12.276;2023-10-13T17:53:32;16.80;77.20
48994;DHT22;34804;49.214;12.276;2023-10-13T17:56:08;16.60;77.80
48994;DHT22;34804;49.214;12.276;2023-10-13T17:58:46;16.30;77.40
48994;DHT22;34804;49.214;12.276;2023-10-13T18:01:15;16.30;77.90
48994;DHT22;34804;49.214;12.276;2023-10-13T18:03:47;16.20;78.10
48994;DHT22;34804;49.214;12.276;2023-10-13T18:06:18;16.30;78.50
48994;DHT22;34804;49.214;12.276;2023-10-13T18:08:48;16.30;78.20
48994;DHT22;34804;49.214;12.276;2023-10-13T18:11:16;16.40;78.60
48994;DHT22;34804;49.214;12.276;2023-10-13T18:13:44;16.10;77.90
48994;DHT22;34804;49.214;12.276;2023-10-13T18:16:16;15.90;78.20
48994;DHT22;34804;49.214;12.276;2023-10-13T18:18:43;15.80;78.60
48994;DHT22;34804;49.214;12.276;2023-10-13T18:21:10;15.80;79.60
48994;DHT22;34804;49.214;12.276;2023-10-13T18:23:39;15.90;79.80
48994;DHT22;34804;49.214;12.276;2023-10-13T18:26:07;16.00;79.40
48994;DHT22;34804;49.214;12.276;2023-10-13T18:28:34;16.00;79.20
48994;DHT22;34804;49.214;12.276;2023-10-13T18:31:02;16.10;79.00
48994;DHT22;34804;49.214;12.276;2023-10-13T18:33:31;16.10;78.90
48994;DHT22;34804;49.214;12.276;2023-10-13T18:36:16;16.00;79.00
48994;DHT22;34804;49.214;12.276;2023-10-13T18:38:44;15.90;78.70
48994;DHT22;34804;49.214;12.276;2023-10-13T18:41:12;15.80;79.20
48994;DHT22;34804;49.214;12.276;2023-10-13T18:43:41;15.80;79.20
48994;DHT22;34804;49.214;12.276;2023-10-13T18:46:09;15.70;79.50
48994;DHT22;34804;49.214;12.276;2023-10-13T18:48:39;15.60;79.80
48994;DHT22;34804;49.214;12.276;2023-10-13T18:51:07;15.60;79.60
48994;DHT22;34804;49.214;12.276;2023-10-13T18:53:35;15.60;79.40
48994;DHT22;34804;49.214;12.276;2023-10-13T18:56:26;15.50;79.50
48994;DHT22;34804;49.214;12.276;2023-10-13T18:58:55;15.40;79.80
48994;DHT22;34804;49.214;12.276;2023-10-13T19:01:24;15.50;79.60
48994;DHT22;34804;49.214;12.276;2023-10-13T19:03:53;15.40;79.80
48994;DHT22;34804;49.214;12.276;2023-10-13T19:06:21;15.40;79.90
48994;DHT22;34804;49.214;12.276;2023-10-13T19:08:49;15.40;79.90
48994;DHT22;34804;49.214;12.276;2023-10-13T19:11:19;15.40;80.00
48994;DHT22;34804;49.214;12.276;2023-10-13T19:13:48;15.30;80.30
48994;DHT22;34804;49.214;12.276;2023-10-13T19:16:17;15.30;80.30
48994;DHT22;34804;49.214;12.276;2023-10-13T19:18:45;15.30;80.30
48994;DHT22;34804;49.214;12.276;2023-10-13T19:21:16;15.30;80.40
48994;DHT22;34804;49.214;12.276;2023-10-13T19:23:47;15.30;80.40
48994;DHT22;34804;49.214;12.276;2023-10-13T19:26:25;15.40;79.60
48994;DHT22;34804;49.214;12.276;2023-10-13T19:28:55;15.40;79.50
48994;DHT22;34804;49.214;12.276;2023-10-13T19:31:23;15.20;80.40
48994;DHT22;34804;49.214;12.276;2023-10-13T19:33:56;15.20;80.40
48994;DHT22;34804;49.214;12.276;2023-10-13T19:36:23;15.10;80.00
48994;DHT22;34804;49.214;12.276;2023-10-13T19:38:51;15.00;80.40
48994;DHT22;34804;49.214;12.276;2023-10-13T19:41:20;14.90;80.80
48994;DHT22;34804;49.214;12.276;2023-10-13T19:43:55;14.90;81.20
48994;DHT22;34804;49.214;12.276;2023-10-13T19:46:33;14.80;81.60
48994;DHT22;34804;49.214;12.276;2023-10-13T19:49:03;14.80;81.70
48994;DHT22;34804;49.214;12.276;2023-10-13T19:51:31;14.70;81.70
48994;DHT22;34804;49.214;12.276;2023-10-13T19:54:00;14.60;82.70
48994;DHT22;34804;49.214;12.276;2023-10-13T19:56:29;14.40;82.80
48994;DHT22;34804;49.214;12.276;2023-10-13T19:58:56;14.40;83.00
48994;DHT22;34804;49.214;12.276;2023-10-13T20:01:23;14.40;83.00
48994;DHT22;34804;49.214;12.276;2023-10-13T20:03:56;14.40;82.90
48994;DHT22;34804;49.214;12.276;2023-10-13T20:06:27;14.50;82.10
48994;DHT22;34804;49.214;12.276;2023-10-13T20:08:56;14.40;81.70
48994;DHT22;34804;49.214;12.276;2023-10-13T20:11:35;14.30;82.10
48994;DHT22;34804;49.214;12.276;2023-10-13T20:14:03;14.30;83.20
48994;DHT22;34804;49.214;12.276;2023-10-13T20:16:30;14.30;83.40